Time;durP1;ratioP1;P1;durP2;ratioP2;P2;SDS_P1;SDS_P2;PMS_P1;PMS_P2;Temp;Humidity;BMP_temperature;BMP_pressure;BME280_temperature;BME280_humidity;BME280_pressure;Samples;Min_cycle;Max_cycle;Signal;HPM_P1;HPM_P2
2020/12/22 00:01:02;;;;;;;;;;;19.00;39.70;;;;;;491768;240;1042;-53
2020/12/22 00:03:04;;;;;;;;;;;19.00;39.70;;;;;;491738;240;967;-53
2020/12/22 00:05:05;;;;;;;;;;;19.00;39.70;;;;;;491592;240;1007;-53
2020/12/22 00:07:06;;;;;;;;;;;19.00;39.60;;;;;;491680;240;1080;-53
2020/12/22 00:09:07;;;;;;;;;;;19.00;38.30;;;;;;491759;240;1150;-53
2020/12/22 00:11:09;;;;;;;;;;;19.00;39.70;;;;;;491511;240;1551;-54
2020/12/22 00:13:10;;;;;;;;;;;19.00;39.70;;;;;;491682;240;1031;-53
2020/12/22 00:15:11;;;;;;;;;;;19.00;39.60;;;;;;491871;240;1435;-53
2020/12/22 00:17:13;;;;;;;;;;;19.10;39.70;;;;;;491555;240;1368;-53
2020/12/22 00:19:14;;;;;;;;;;;19.10;39.60;;;;;;491685;240;1022;-53
2020/12/22 00:21:15;;;;;;;;;;;19.10;39.60;;;;;;491682;240;1377;-53
2020/12/22 00:23:16;;;;;;;;;;;19.10;39.60;;;;;;491648;240;1192;-53
2020/12/22 00:25:18;;;;;;;;;;;19.10;39.60;;;;;;491985;240;1291;-53
2020/12/22 00:27:19;;;;;;;;;;;19.10;39.60;;;;;;491695;240;1241;-53
2020/12/22 00:29:20;;;;;;;;;;;19.10;39.60;;;;;;491660;240;1051;-53
2020/12/22 00:31:22;;;;;;;;;;;19.10;39.60;;;;;;491918;240;2175;-53
2020/12/22 00:33:23;;;;;;;;;;;19.10;39.60;;;;;;491913;240;1064;-53
2020/12/22 00:35:24;;;;;;;;;;;19.10;39.60;;;;;;491617;240;1068;-53
2020/12/22 00:37:25;;;;;;;;;;;19.10;39.60;;;;;;491763;240;1201;-53
2020/12/22 00:39:27;;;;;;;;;;;19.10;39.60;;;;;;491792;240;1125;-52
2020/12/22 00:41:28;;;;;;;;;;;19.10;39.60;;;;;;491600;240;1287;-53
2020/12/22 00:43:29;;;;;;;;;;;19.10;39.60;;;;;;491674;240;976;-53
2020/12/22 00:45:30;;;;;;;;;;;19.10;39.60;;;;;;491593;240;1070;-53
2020/12/22 00:47:32;;;;;;;;;;;19.10;39.60;;;;;;491561;240;1044;-53
2020/12/22 00:49:33;;;;;;;;;;;19.10;39.60;;;;;;491716;240;1033;-53
2020/12/22 00:51:34;;;;;;;;;;;19.10;39.60;;;;;;491731;240;2149;-53
2020/12/22 00:53:36;;;;;;;;;;;19.10;39.50;;;;;;491843;240;1042;-53
2020/12/22 00:55:37;;;;;;;;;;;19.10;39.60;;;;;;491652;240;1209;-53
2020/12/22 00:57:38;;;;;;;;;;;19.10;39.60;;;;;;491669;240;1226;-53
2020/12/22 00:59:39;;;;;;;;;;;19.10;39.60;;;;;;491657;240;985;-53
2020/12/22 01:01:41;;;;;;;;;;;19.10;39.60;;;;;;491641;240;1076;-53
2020/12/22 01:03:42;;;;;;;;;;;19.10;39.60;;;;;;491662;240;951;-53
2020/12/22 01:05:43;;;;;;;;;;;19.20;39.60;;;;;;491640;240;1032;-52
2020/12/22 01:07:44;;;;;;;;;;;19.10;39.50;;;;;;492004;240;1206;-53
2020/12/22 01:09:46;;;;;;;;;;;19.20;39.60;;;;;;491647;240;1133;-53
2020/12/22 01:11:47;;;;;;;;;;;19.20;39.60;;;;;;491534;240;2140;-53
2020/12/22 01:13:48;;;;;;;;;;;19.20;39.60;;;;;;491666;240;1270;-52
2020/12/22 01:15:50;;;;;;;;;;;19.10;39.50;;;;;;491666;240;1213;-53
2020/12/22 01:17:51;;;;;;;;;;;19.10;39.60;;;;;;491729;240;1102;-53
2020/12/22 01:19:53;;;;;;;;;;;19.10;39.50;;;;;;491623;240;1073;-53
2020/12/22 01:21:54;;;;;;;;;;;19.10;39.50;;;;;;491431;240;1166;-53
2020/12/22 01:23:55;;;;;;;;;;;19.10;39.50;;;;;;491765;240;1116;-53
2020/12/22 01:25:57;;;;;;;;;;;19.10;39.50;;;;;;491512;240;1338;-53
2020/12/22 01:27:58;;;;;;;;;;;19.20;39.60;;;;;;491634;240;1008;-53
2020/12/22 01:29:59;;;;;;;;;;;19.20;39.50;;;;;;491659;240;1036;-53
2020/12/22 01:32:01;;;;;;;;;;;19.20;39.50;;;;;;491515;240;2188;-53
2020/12/22 01:34:02;;;;;;;;;;;19.20;39.50;;;;;;491626;240;1158;-53
2020/12/22 01:36:03;;;;;;;;;;;19.20;39.50;;;;;;491641;240;1027;-53
2020/12/22 01:38:05;;;;;;;;;;;19.20;39.50;;;;;;491641;240;1022;-53
2020/12/22 01:40:06;;;;;;;;;;;19.20;39.50;;;;;;491802;240;1656;-53
2020/12/22 01:42:07;;;;;;;;;;;19.20;39.50;;;;;;491724;240;1035;-53
2020/12/22 01:44:08;;;;;;;;;;;19.20;39.50;;;;;;491655;240;1014;-52
2020/12/22 01:46:10;;;;;;;;;;;19.20;39.50;;;;;;491746;240;972;-53
2020/12/22 01:48:11;;;;;;;;;;;19.20;39.50;;;;;;491714;240;948;-53
2020/12/22 01:50:12;;;;;;;;;;;19.20;39.50;;;;;;492022;240;1027;-52
2020/12/22 01:52:14;;;;;;;;;;;19.20;39.50;;;;;;491715;240;2124;-53
2020/12/22 01:54:15;;;;;;;;;;;19.20;39.50;;;;;;491798;240;1060;-53
2020/12/22 01:56:16;;;;;;;;;;;19.20;39.50;;;;;;491530;240;1205;-53
2020/12/22 01:58:17;;;;;;;;;;;19.20;39.50;;;;;;491760;240;1005;-53
2020/12/22 02:00:19;;;;;;;;;;;19.20;39.50;;;;;;491643;240;927;-53
2020/12/22 02:02:20;;;;;;;;;;;19.20;39.50;;;;;;491511;240;1176;-53
2020/12/22 02:04:21;;;;;;;;;;;19.20;39.50;;;;;;491722;240;1219;-53
2020/12/22 02:06:22;;;;;;;;;;;19.20;39.50;;;;;;491726;240;1206;-53
2020/12/22 02:08:24;;;;;;;;;;;19.20;39.40;;;;;;491614;240;1080;-53
2020/12/22 02:10:28;;;;;;;;;;;19.20;39.40;;;;;;491569;240;1202;-53
2020/12/22 02:12:29;;;;;;;;;;;19.20;39.40;;;;;;491517;240;2181;-53
2020/12/22 02:14:31;;;;;;;;;;;19.20;39.40;;;;;;491982;240;1029;-53
2020/12/22 02:16:32;;;;;;;;;;;19.20;39.40;;;;;;491633;240;1035;-53
2020/12/22 02:18:33;;;;;;;;;;;19.20;39.40;;;;;;491626;240;1166;-53
2020/12/22 02:20:34;;;;;;;;;;;19.20;39.40;;;;;;491701;240;1031;-53
2020/12/22 02:22:36;;;;;;;;;;;19.30;39.50;;;;;;491648;240;1378;-53
2020/12/22 02:24:37;;;;;;;;;;;19.30;39.50;;;;;;491636;240;985;-53
2020/12/22 02:26:38;;;;;;;;;;;19.30;38.10;;;;;;491614;240;1248;-53
2020/12/22 02:28:39;;;;;;;;;;;19.30;39.50;;;;;;491590;240;1012;-53
2020/12/22 02:30:41;;;;;;;;;;;19.20;39.40;;;;;;491676;240;1054;-53
2020/12/22 02:32:42;;;;;;;;;;;19.20;39.40;;;;;;491553;240;2153;-52
2020/12/22 02:34:43;;;;;;;;;;;19.30;39.40;;;;;;491718;240;960;-53
2020/12/22 02:36:45;;;;;;;;;;;19.30;39.40;;;;;;491668;240;1005;-53
2020/12/22 02:38:46;;;;;;;;;;;19.30;38.10;;;;;;491684;240;1038;-53
2020/12/22 02:40:47;;;;;;;;;;;19.30;39.50;;;;;;491870;240;1164;-53
2020/12/22 02:42:48;;;;;;;;;;;19.30;39.40;;;;;;491623;240;1037;-53
2020/12/22 02:44:50;;;;;;;;;;;19.30;39.40;;;;;;491797;240;1011;-53
2020/12/22 02:46:51;;;;;;;;;;;19.30;39.40;;;;;;491643;240;980;-53
2020/12/22 02:48:52;;;;;;;;;;;19.30;39.40;;;;;;491671;240;1121;-52
2020/12/22 02:50:54;;;;;;;;;;;19.30;39.40;;;;;;491814;240;1029;-53
2020/12/22 02:52:55;;;;;;;;;;;19.30;39.40;;;;;;491797;240;2124;-53
2020/12/22 02:54:56;;;;;;;;;;;19.30;39.40;;;;;;491753;240;1094;-53
2020/12/22 02:56:57;;;;;;;;;;;19.30;39.40;;;;;;491614;240;1225;-53
2020/12/22 02:58:59;;;;;;;;;;;19.30;38.10;;;;;;491720;240;1131;-52
2020/12/22 03:01:00;;;;;;;;;;;19.30;39.40;;;;;;491654;240;1067;-53
2020/12/22 03:03:01;;;;;;;;;;;19.30;39.40;;;;;;491600;240;1207;-53
2020/12/22 03:05:02;;;;;;;;;;;19.30;39.40;;;;;;491639;240;1075;-53
2020/12/22 03:07:04;;;;;;;;;;;19.30;39.40;;;;;;491613;240;1169;-53
2020/12/22 03:09:05;;;;;;;;;;;19.30;39.40;;;;;;491818;240;1147;-53
2020/12/22 03:11:06;;;;;;;;;;;19.30;39.40;;;;;;491664;240;1224;-53
2020/12/22 03:13:08;;;;;;;;;;;19.30;39.40;;;;;;491558;240;2184;-53
2020/12/22 03:15:09;;;;;;;;;;;19.30;39.40;;;;;;491573;240;1029;-53
2020/12/22 03:17:10;;;;;;;;;;;19.30;39.40;;;;;;491564;240;1238;-53
2020/12/22 03:19:11;;;;;;;;;;;19.30;39.30;;;;;;491781;240;945;-53
2020/12/22 03:21:14;;;;;;;;;;;19.30;39.40;;;;;;491590;240;1183;-53
2020/12/22 03:23:14;;;;;;;;;;;19.30;39.30;;;;;;491610;242;1410;-53
2020/12/22 03:25:16;;;;;;;;;;;19.30;39.40;;;;;;491739;240;961;-52
2020/12/22 03:27:17;;;;;;;;;;;19.30;39.40;;;;;;491581;240;1239;-53
2020/12/22 03:29:18;;;;;;;;;;;19.30;39.40;;;;;;491848;240;1170;-53
2020/12/22 03:31:19;;;;;;;;;;;19.30;39.40;;;;;;491735;240;1190;-53
2020/12/22 03:33:21;;;;;;;;;;;19.30;39.40;;;;;;491800;240;2132;-53
2020/12/22 03:35:22;;;;;;;;;;;19.30;39.30;;;;;;491710;240;1032;-53
2020/12/22 03:37:23;;;;;;;;;;;19.30;39.30;;;;;;491599;240;990;-52
2020/12/22 03:39:25;;;;;;;;;;;19.30;39.30;;;;;;491610;240;1044;-53
2020/12/22 03:41:26;;;;;;;;;;;19.30;39.40;;;;;;491683;240;1262;-53
2020/12/22 03:43:27;;;;;;;;;;;19.30;39.40;;;;;;491669;240;1026;-53
2020/12/22 03:45:28;;;;;;;;;;;19.30;39.40;;;;;;491644;240;1074;-53
2020/12/22 03:47:30;;;;;;;;;;;19.30;39.40;;;;;;491761;240;1186;-52
2020/12/22 03:49:31;;;;;;;;;;;19.40;39.40;;;;;;491639;240;981;-53
2020/12/22 03:51:33;;;;;;;;;;;19.30;39.30;;;;;;491946;240;1104;-53
2020/12/22 03:53:34;;;;;;;;;;;19.30;39.40;;;;;;491681;240;2148;-53
2020/12/22 03:55:35;;;;;;;;;;;19.30;39.40;;;;;;491819;240;1019;-53
2020/12/22 03:57:36;;;;;;;;;;;19.30;39.30;;;;;;491655;240;1146;-53
2020/12/22 03:59:38;;;;;;;;;;;19.40;39.40;;;;;;491739;240;1035;-53
2020/12/22 04:01:39;;;;;;;;;;;19.30;39.40;;;;;;491715;240;1070;-53
2020/12/22 04:03:40;;;;;;;;;;;19.30;39.40;;;;;;491537;241;1340;-53
2020/12/22 04:05:41;;;;;;;;;;;19.30;38.00;;;;;;491692;240;1015;-53
2020/12/22 04:07:43;;;;;;;;;;;19.40;39.40;;;;;;491820;240;1128;-53
2020/12/22 04:09:44;;;;;;;;;;;19.30;39.40;;;;;;491674;238;1406;-53
2020/12/22 04:11:45;;;;;;;;;;;19.40;39.40;;;;;;491921;240;1155;-52
2020/12/22 04:13:47;;;;;;;;;;;19.40;39.40;;;;;;491814;240;2148;-53
2020/12/22 04:15:48;;;;;;;;;;;19.40;39.40;;;;;;491655;240;944;-53
2020/12/22 04:17:49;;;;;;;;;;;19.40;39.40;;;;;;491746;240;1257;-53
2020/12/22 04:19:50;;;;;;;;;;;19.40;39.40;;;;;;491742;240;1053;-53
2020/12/22 04:21:52;;;;;;;;;;;19.40;39.40;;;;;;491707;240;1082;-52
2020/12/22 04:23:53;;;;;;;;;;;19.40;39.40;;;;;;491620;240;1041;-53
2020/12/22 04:25:54;;;;;;;;;;;19.40;39.30;;;;;;491747;240;983;-53
2020/12/22 04:27:56;;;;;;;;;;;19.40;39.30;;;;;;491680;240;1323;-53
2020/12/22 04:29:57;;;;;;;;;;;19.40;39.30;;;;;;491805;240;1050;-53
2020/12/22 04:31:58;;;;;;;;;;;19.40;39.30;;;;;;491640;240;1090;-53
2020/12/22 04:33:59;;;;;;;;;;;19.40;39.30;;;;;;491616;240;2199;-53
2020/12/22 04:36:01;;;;;;;;;;;19.40;39.30;;;;;;491629;240;1003;-53
2020/12/22 04:38:03;;;;;;;;;;;19.40;39.20;;;;;;491617;240;1166;-53
2020/12/22 04:40:03;;;;;;;;;;;19.40;39.20;;;;;;491663;240;2639;-53
2020/12/22 04:42:05;;;;;;;;;;;19.40;39.20;;;;;;491629;240;1243;-53
2020/12/22 04:44:06;;;;;;;;;;;19.50;39.20;;;;;;491741;240;1026;-52
2020/12/22 04:46:07;;;;;;;;;;;19.50;39.20;;;;;;491815;240;954;-53
2020/12/22 04:48:08;;;;;;;;;;;19.50;39.20;;;;;;491697;240;1190;-53
2020/12/22 04:50:10;;;;;;;;;;;19.50;39.20;;;;;;491701;240;1194;-53
2020/12/22 04:52:11;;;;;;;;;;;19.50;39.20;;;;;;491574;240;1211;-53
2020/12/22 04:54:12;;;;;;;;;;;19.50;39.10;;;;;;491578;240;2191;-53
2020/12/22 04:56:13;;;;;;;;;;;19.50;39.20;;;;;;492020;240;1026;-53
2020/12/22 04:58:15;;;;;;;;;;;19.50;39.20;;;;;;491616;240;1102;-52
2020/12/22 05:00:16;;;;;;;;;;;19.40;39.20;;;;;;491771;240;1048;-52
2020/12/22 05:02:17;;;;;;;;;;;19.40;39.20;;;;;;491663;240;1342;-53
2020/12/22 05:04:19;;;;;;;;;;;19.40;39.30;;;;;;491690;240;990;-53
2020/12/22 05:06:20;;;;;;;;;;;19.40;39.40;;;;;;491732;240;1181;-53
2020/12/22 05:08:22;;;;;;;;;;;19.30;38.10;;;;;;491777;240;1171;-53
2020/12/22 05:10:23;;;;;;;;;;;19.30;39.50;;;;;;491649;240;1056;-52
2020/12/22 05:12:24;;;;;;;;;;;19.30;39.60;;;;;;491661;240;1149;-53
2020/12/22 05:14:25;;;;;;;;;;;19.30;39.70;;;;;;491625;240;2176;-52
2020/12/22 05:16:27;;;;;;;;;;;19.20;39.70;;;;;;491905;240;1033;-52
2020/12/22 05:18:28;;;;;;;;;;;19.20;39.80;;;;;;491685;240;1055;-53
2020/12/22 05:20:30;;;;;;;;;;;19.20;39.80;;;;;;491605;240;1127;-53
2020/12/22 05:22:31;;;;;;;;;;;19.10;39.80;;;;;;491588;240;1041;-53
2020/12/22 05:24:32;;;;;;;;;;;19.10;39.90;;;;;;491620;240;1291;-53
2020/12/22 05:26:33;;;;;;;;;;;19.10;40.00;;;;;;491677;240;964;-53
2020/12/22 05:28:34;;;;;;;;;;;19.10;40.00;;;;;;491595;240;1191;-53
2020/12/22 05:30:36;;;;;;;;;;;19.00;40.10;;;;;;491670;240;1263;-53
2020/12/22 05:32:37;;;;;;;;;;;19.00;40.10;;;;;;491615;240;1101;-53
2020/12/22 05:34:38;;;;;;;;;;;19.00;40.20;;;;;;491642;240;2125;-53
2020/12/22 05:36:40;;;;;;;;;;;19.00;40.30;;;;;;491766;240;1239;-52
2020/12/22 05:38:41;;;;;;;;;;;18.90;40.30;;;;;;491576;240;1067;-53
2020/12/22 05:40:43;;;;;;;;;;;18.90;40.40;;;;;;491717;240;1042;-53
2020/12/22 05:42:44;;;;;;;;;;;18.90;40.40;;;;;;491647;240;1187;-53
2020/12/22 05:44:45;;;;;;;;;;;18.80;40.50;;;;;;491664;240;1125;-53
2020/12/22 05:46:47;;;;;;;;;;;18.80;40.50;;;;;;491675;240;1081;-52
2020/12/22 05:48:48;;;;;;;;;;;18.80;40.50;;;;;;491706;240;968;-53
2020/12/22 05:50:51;;;;;;;;;;;18.80;40.60;;;;;;491564;240;948;-53
2020/12/22 05:52:51;;;;;;;;;;;18.80;40.70;;;;;;491860;241;2245;-52
2020/12/22 05:54:52;;;;;;;;;;;18.70;40.70;;;;;;491729;240;2113;-53
2020/12/22 05:56:53;;;;;;;;;;;18.70;39.40;;;;;;491527;240;1081;-53
2020/12/22 05:58:54;;;;;;;;;;;18.70;40.80;;;;;;491554;240;1193;-53
2020/12/22 06:00:56;;;;;;;;;;;18.70;40.80;;;;;;491516;240;966;-52
2020/12/22 06:02:57;;;;;;;;;;;18.70;40.90;;;;;;491580;240;1012;-53
2020/12/22 06:04:58;;;;;;;;;;;18.70;40.90;;;;;;491486;240;1002;-52
2020/12/22 06:06:59;;;;;;;;;;;18.70;40.90;;;;;;491522;240;1031;-52
2020/12/22 06:09:01;;;;;;;;;;;18.70;41.00;;;;;;491534;240;1042;-52
2020/12/22 06:11:02;;;;;;;;;;;18.60;41.00;;;;;;491527;240;1003;-52
2020/12/22 06:13:03;;;;;;;;;;;18.60;41.00;;;;;;491763;240;1106;-53
2020/12/22 06:15:05;;;;;;;;;;;18.60;41.00;;;;;;491621;240;2139;-53
2020/12/22 06:17:07;;;;;;;;;;;18.60;41.10;;;;;;491475;240;1054;-53
2020/12/22 06:19:07;;;;;;;;;;;18.60;41.10;;;;;;491436;240;2526;-53
2020/12/22 06:21:08;;;;;;;;;;;18.50;41.10;;;;;;491466;240;1048;-53
2020/12/22 06:23:10;;;;;;;;;;;18.60;41.20;;;;;;491557;240;1053;-53
2020/12/22 06:25:11;;;;;;;;;;;18.50;41.10;;;;;;491493;240;1014;-52
2020/12/22 06:27:12;;;;;;;;;;;18.50;41.20;;;;;;491497;240;1072;-53
2020/12/22 06:29:13;;;;;;;;;;;18.50;41.30;;;;;;491628;240;1217;-53
2020/12/22 06:31:15;;;;;;;;;;;18.50;41.30;;;;;;491466;240;999;-53
2020/12/22 06:33:16;;;;;;;;;;;18.50;41.30;;;;;;491349;240;1039;-53
2020/12/22 06:35:17;;;;;;;;;;;18.50;41.30;;;;;;491399;240;2418;-53
2020/12/22 06:37:19;;;;;;;;;;;18.50;41.30;;;;;;491410;240;1062;-53
2020/12/22 06:39:20;;;;;;;;;;;18.50;41.40;;;;;;491445;240;1277;-53
2020/12/22 06:41:21;;;;;;;;;;;18.40;41.40;;;;;;491471;240;1069;-53
2020/12/22 06:43:22;;;;;;;;;;;18.40;40.10;;;;;;491451;240;1165;-52
2020/12/22 06:45:24;;;;;;;;;;;18.40;41.40;;;;;;491389;240;975;-53
2020/12/22 06:47:25;;;;;;;;;;;18.40;41.40;;;;;;491385;240;1295;-52
2020/12/22 06:49:27;;;;;;;;;;;18.40;41.40;;;;;;491348;240;1047;-53
2020/12/22 06:51:29;;;;;;;;;;;18.40;41.50;;;;;;491369;240;1215;-53
2020/12/22 06:53:29;;;;;;;;;;;18.40;41.50;;;;;;491327;241;2153;-53
2020/12/22 06:55:31;;;;;;;;;;;18.40;41.50;;;;;;491524;240;1321;-53
2020/12/22 06:57:32;;;;;;;;;;;18.40;41.50;;;;;;491427;240;1175;-52
2020/12/22 06:59:33;;;;;;;;;;;18.30;41.50;;;;;;491533;240;1200;-53
2020/12/22 07:01:34;;;;;;;;;;;18.30;41.50;;;;;;491310;240;1223;-52
2020/12/22 07:03:36;;;;;;;;;;;18.40;41.60;;;;;;491298;240;1271;-53
2020/12/22 07:05:37;;;;;;;;;;;18.30;41.50;;;;;;491301;240;1228;-53
2020/12/22 07:07:38;;;;;;;;;;;18.30;41.60;;;;;;491427;240;1175;-53
2020/12/22 07:09:40;;;;;;;;;;;18.30;41.60;;;;;;491416;240;1061;-53
2020/12/22 07:11:41;;;;;;;;;;;18.40;41.60;;;;;;491403;240;1218;-53
2020/12/22 07:13:42;;;;;;;;;;;18.40;41.50;;;;;;491304;240;2185;-53
2020/12/22 07:15:44;;;;;;;;;;;18.40;41.40;;;;;;491402;240;1281;-53
2020/12/22 07:17:45;;;;;;;;;;;18.40;41.50;;;;;;491475;240;1000;-53
2020/12/22 07:19:46;;;;;;;;;;;18.40;41.40;;;;;;491425;240;978;-53
2020/12/22 07:21:47;;;;;;;;;;;18.50;41.40;;;;;;491297;240;1193;-53
2020/12/22 07:23:49;;;;;;;;;;;18.50;41.40;;;;;;491357;240;1049;-53
2020/12/22 07:25:50;;;;;;;;;;;18.50;41.30;;;;;;491290;240;1208;-53
2020/12/22 07:27:51;;;;;;;;;;;18.60;41.40;;;;;;491511;240;941;-53
2020/12/22 07:29:53;;;;;;;;;;;18.60;41.40;;;;;;491452;240;1185;-53
2020/12/22 07:31:54;;;;;;;;;;;18.60;41.30;;;;;;491435;240;1074;-53
2020/12/22 07:33:55;;;;;;;;;;;18.60;41.30;;;;;;491381;240;2136;-53
2020/12/22 07:35:56;;;;;;;;;;;18.70;41.30;;;;;;491492;240;1318;-53
2020/12/22 07:37:58;;;;;;;;;;;18.70;41.30;;;;;;491492;240;1080;-53
2020/12/22 07:39:59;;;;;;;;;;;18.70;41.20;;;;;;491328;240;1101;-53
2020/12/22 07:42:00;;;;;;;;;;;18.70;41.20;;;;;;491448;240;1041;-53
2020/12/22 07:44:01;;;;;;;;;;;18.70;41.20;;;;;;491360;240;1135;-53
2020/12/22 07:46:03;;;;;;;;;;;18.80;41.20;;;;;;491407;240;1273;-53
2020/12/22 07:48:04;;;;;;;;;;;18.80;41.10;;;;;;491249;240;1354;-53
2020/12/22 07:50:06;;;;;;;;;;;18.80;41.10;;;;;;491225;240;1068;-53
2020/12/22 07:52:07;;;;;;;;;;;18.80;41.10;;;;;;491282;240;1200;-52
2020/12/22 07:54:08;;;;;;;;;;;18.80;41.00;;;;;;491351;240;2184;-53
2020/12/22 07:56:09;;;;;;;;;;;18.80;41.00;;;;;;491260;240;979;-53
2020/12/22 07:58:11;;;;;;;;;;;18.90;41.10;;;;;;491379;240;1178;-52
2020/12/22 08:00:12;;;;;;;;;;;18.90;39.70;;;;;;491359;240;1126;-53
2020/12/22 08:02:13;;;;;;;;;;;18.90;41.00;;;;;;491327;240;1070;-53
2020/12/22 08:04:14;;;;;;;;;;;18.90;41.00;;;;;;491342;240;987;-53
2020/12/22 08:06:16;;;;;;;;;;;19.00;41.00;;;;;;491349;240;1074;-53
2020/12/22 08:08:17;;;;;;;;;;;18.90;40.90;;;;;;491321;240;1090;-54
2020/12/22 08:10:18;;;;;;;;;;;18.90;39.50;;;;;;491320;240;986;-53
2020/12/22 08:12:20;;;;;;;;;;;19.00;40.90;;;;;;491381;240;1058;-53
2020/12/22 08:14:21;;;;;;;;;;;19.00;40.90;;;;;;491234;240;2216;-53
2020/12/22 08:16:22;;;;;;;;;;;19.00;39.50;;;;;;491273;240;959;-53
2020/12/22 08:18:24;;;;;;;;;;;19.00;40.80;;;;;;491385;240;1197;-53
2020/12/22 08:20:25;;;;;;;;;;;19.10;40.80;;;;;;491269;240;1044;-53
2020/12/22 08:22:26;;;;;;;;;;;19.10;40.80;;;;;;491310;240;1191;-53
2020/12/22 08:24:27;;;;;;;;;;;19.10;40.80;;;;;;491187;240;1061;-53
2020/12/22 08:26:29;;;;;;;;;;;19.10;40.70;;;;;;491194;240;1027;-53
2020/12/22 08:28:30;;;;;;;;;;;19.10;40.70;;;;;;491146;240;1104;-53
2020/12/22 08:30:33;;;;;;;;;;;19.10;40.70;;;;;;491267;240;1194;-53
2020/12/22 08:32:33;;;;;;;;;;;19.10;40.70;;;;;;491345;240;1493;-53
2020/12/22 08:34:34;;;;;;;;;;;19.20;39.40;;;;;;491359;240;2152;-53
2020/12/22 08:36:36;;;;;;;;;;;19.20;40.70;;;;;;491290;240;1039;-53
2020/12/22 08:38:37;;;;;;;;;;;19.20;40.70;;;;;;491283;240;1277;-53
2020/12/22 08:40:38;;;;;;;;;;;19.20;40.70;;;;;;491187;240;1356;-53
2020/12/22 08:42:40;;;;;;;;;;;19.20;40.70;;;;;;491179;240;1389;-53
2020/12/22 08:44:41;;;;;;;;;;;19.30;40.70;;;;;;491198;240;1166;-53
2020/12/22 08:46:42;;;;;;;;;;;19.30;40.70;;;;;;491255;240;978;-53
2020/12/22 08:48:43;;;;;;;;;;;19.30;40.70;;;;;;491289;240;1049;-53
2020/12/22 08:50:45;;;;;;;;;;;19.30;40.60;;;;;;491342;240;1048;-53
2020/12/22 08:52:46;;;;;;;;;;;19.30;40.60;;;;;;491267;240;1068;-53
2020/12/22 08:54:47;;;;;;;;;;;19.30;40.60;;;;;;491214;240;2176;-53
2020/12/22 08:56:48;;;;;;;;;;;19.30;40.60;;;;;;491251;240;1027;-53
2020/12/22 08:58:50;;;;;;;;;;;19.40;40.60;;;;;;491367;240;969;-53
2020/12/22 09:00:51;;;;;;;;;;;19.40;40.60;;;;;;491272;240;1299;-53
2020/12/22 09:02:52;;;;;;;;;;;19.40;40.60;;;;;;491261;240;1041;-53
2020/12/22 09:04:54;;;;;;;;;;;19.40;40.60;;;;;;491175;240;1046;-53
2020/12/22 09:06:55;;;;;;;;;;;19.40;40.50;;;;;;491261;240;1107;-53
2020/12/22 09:08:56;;;;;;;;;;;19.40;39.30;;;;;;491194;240;1124;-53
2020/12/22 09:13:20;;;;;;;;;;;19.40;40.50;;;;;;491093;242;1723;-53
2020/12/22 09:15:20;;;;;;;;;;;19.40;40.50;;;;;;491262;240;2358;-53
2020/12/22 09:17:21;;;;;;;;;;;19.50;40.50;;;;;;491229;240;1210;-53
2020/12/22 09:19:23;;;;;;;;;;;19.50;40.50;;;;;;491243;240;1086;-53
2020/12/22 09:21:24;;;;;;;;;;;19.50;40.50;;;;;;491130;240;1024;-53
2020/12/22 09:23:25;;;;;;;;;;;19.50;40.50;;;;;;491222;240;1203;-53
2020/12/22 09:25:26;;;;;;;;;;;19.50;40.50;;;;;;491278;240;1165;-53
2020/12/22 09:27:28;;;;;;;;;;;19.50;40.50;;;;;;491223;240;1053;-53
2020/12/22 09:29:29;;;;;;;;;;;19.60;40.50;;;;;;491290;240;1068;-53
2020/12/22 09:31:31;;;;;;;;;;;19.50;40.40;;;;;;491252;240;1153;-53
2020/12/22 09:33:32;;;;;;;;;;;19.60;40.40;;;;;;491337;240;1221;-53
2020/12/22 09:35:33;;;;;;;;;;;19.70;38.90;;;;;;491170;240;2148;-53
2020/12/22 09:37:34;;;;;;;;;;;19.70;40.10;;;;;;491273;240;1026;-53
2020/12/22 09:39:36;;;;;;;;;;;19.80;40.10;;;;;;491118;240;1071;-53
2020/12/22 09:41:37;;;;;;;;;;;19.70;40.10;;;;;;491233;240;997;-53
2020/12/22 09:43:38;;;;;;;;;;;19.70;40.20;;;;;;491276;240;1215;-53
2020/12/22 09:45:40;;;;;;;;;;;19.60;40.20;;;;;;491347;240;1253;-53
2020/12/22 09:47:41;;;;;;;;;;;19.60;40.30;;;;;;491201;240;1142;-53
2020/12/22 09:49:42;;;;;;;;;;;19.60;40.40;;;;;;491186;240;1060;-53
2020/12/22 09:51:44;;;;;;;;;;;19.60;40.50;;;;;;491180;240;995;-53
2020/12/22 09:53:45;;;;;;;;;;;19.50;40.50;;;;;;491270;240;1238;-53
2020/12/22 09:55:46;;;;;;;;;;;19.50;40.50;;;;;;491337;240;2208;-53
2020/12/22 09:57:48;;;;;;;;;;;19.50;40.60;;;;;;491261;240;1100;-53
2020/12/22 09:59:49;;;;;;;;;;;19.40;40.70;;;;;;491156;240;1135;-53
2020/12/22 10:01:50;;;;;;;;;;;19.40;40.80;;;;;;491151;240;1363;-53
2020/12/22 10:03:51;;;;;;;;;;;19.40;40.80;;;;;;491268;240;1152;-53
2020/12/22 10:05:53;;;;;;;;;;;19.30;40.80;;;;;;491233;240;1034;-52
2020/12/22 10:07:54;;;;;;;;;;;19.30;40.90;;;;;;491181;240;1043;-52
2020/12/22 10:09:55;;;;;;;;;;;19.30;39.80;;;;;;491252;240;1061;-53
2020/12/22 10:11:57;;;;;;;;;;;19.30;41.10;;;;;;491232;240;1105;-53
2020/12/22 10:13:58;;;;;;;;;;;19.20;41.20;;;;;;491208;240;1331;-53
2020/12/22 10:16:00;;;;;;;;;;;19.20;40.00;;;;;;491013;240;2129;-53
2020/12/22 10:18:00;;;;;;;;;;;19.20;41.30;;;;;;491009;240;1840;-53
2020/12/22 10:20:02;;;;;;;;;;;19.20;41.40;;;;;;490968;240;1072;-53
2020/12/22 10:22:03;;;;;;;;;;;19.10;41.40;;;;;;490951;240;1044;-53
2020/12/22 10:24:05;;;;;;;;;;;19.10;41.60;;;;;;491026;240;1050;-53
2020/12/22 10:26:06;;;;;;;;;;;19.10;40.40;;;;;;490996;240;1069;-52
2020/12/22 10:28:07;;;;;;;;;;;19.00;41.70;;;;;;490982;240;1226;-53
2020/12/22 10:30:08;;;;;;;;;;;19.10;41.90;;;;;;490926;240;1311;-53
2020/12/22 10:32:10;;;;;;;;;;;19.00;41.90;;;;;;490989;240;1195;-53
2020/12/22 10:34:11;;;;;;;;;;;19.00;42.00;;;;;;491012;240;1155;-53
2020/12/22 10:36:13;;;;;;;;;;;19.00;42.00;;;;;;491038;240;2180;-53
2020/12/22 10:38:14;;;;;;;;;;;19.00;42.10;;;;;;490933;240;1195;-53
2020/12/22 10:40:15;;;;;;;;;;;19.00;42.10;;;;;;490979;240;1041;-53
2020/12/22 10:42:17;;;;;;;;;;;18.90;42.10;;;;;;491015;240;1277;-53
2020/12/22 10:44:18;;;;;;;;;;;18.90;40.90;;;;;;491081;240;1295;-53
2020/12/22 10:46:19;;;;;;;;;;;18.90;42.20;;;;;;491055;240;1254;-53
2020/12/22 10:48:21;;;;;;;;;;;18.90;42.20;;;;;;491105;240;1202;-53
2020/12/22 10:50:22;;;;;;;;;;;18.90;42.30;;;;;;491110;240;1070;-53
2020/12/22 10:52:23;;;;;;;;;;;18.80;42.30;;;;;;491234;240;1207;-53
2020/12/22 10:54:25;;;;;;;;;;;18.80;42.30;;;;;;491320;240;1213;-53
2020/12/22 10:56:26;;;;;;;;;;;18.80;42.30;;;;;;491271;240;2188;-53
2020/12/22 10:58:27;;;;;;;;;;;18.80;42.30;;;;;;491135;240;1060;-52
2020/12/22 11:00:29;;;;;;;;;;;18.80;42.40;;;;;;491061;240;1008;-53
2020/12/22 11:02:30;;;;;;;;;;;18.70;42.30;;;;;;491234;240;1193;-53
2020/12/22 11:04:31;;;;;;;;;;;18.70;42.40;;;;;;491318;240;1035;-53
2020/12/22 11:06:41;;;;;;;;;;;18.70;42.40;;;;;;491292;240;1078;-53
2020/12/22 11:08:37;;;;;;;;;;;18.70;42.50;;;;;;491086;242;1435;-53
2020/12/22 11:10:39;;;;;;;;;;;18.70;42.50;;;;;;491086;240;1243;-53
2020/12/22 11:12:40;;;;;;;;;;;18.70;42.50;;;;;;491205;240;983;-53
2020/12/22 11:14:41;;;;;;;;;;;18.60;42.50;;;;;;491382;240;1013;-53
2020/12/22 11:16:42;;;;;;;;;;;18.60;42.60;;;;;;491253;240;2130;-53
2020/12/22 11:18:44;;;;;;;;;;;18.60;42.60;;;;;;491292;240;1060;-53
2020/12/22 11:20:45;;;;;;;;;;;18.60;42.60;;;;;;491252;240;1088;-53
2020/12/22 11:22:46;;;;;;;;;;;18.60;42.60;;;;;;491298;240;1240;-53
2020/12/22 11:24:48;;;;;;;;;;;18.60;42.60;;;;;;491473;240;1056;-53
2020/12/22 11:26:49;;;;;;;;;;;18.50;42.60;;;;;;491388;240;984;-53
2020/12/22 11:28:50;;;;;;;;;;;18.50;42.60;;;;;;491307;240;1358;-53
2020/12/22 11:30:51;;;;;;;;;;;18.50;42.70;;;;;;491274;240;1136;-53
2020/12/22 11:32:53;;;;;;;;;;;18.50;42.70;;;;;;491269;240;1464;-52
2020/12/22 11:34:54;;;;;;;;;;;18.50;42.70;;;;;;491195;240;1089;-53
2020/12/22 11:36:55;;;;;;;;;;;18.50;42.80;;;;;;491176;240;2251;-53
2020/12/22 11:38:56;;;;;;;;;;;18.50;42.80;;;;;;491340;240;1159;-53
2020/12/22 11:40:58;;;;;;;;;;;18.50;42.80;;;;;;491273;240;1050;-53
2020/12/22 11:42:59;;;;;;;;;;;18.40;42.80;;;;;;491196;240;1112;-53
2020/12/22 11:45:00;;;;;;;;;;;18.40;42.80;;;;;;491175;240;1077;-53
2020/12/22 11:47:02;;;;;;;;;;;18.40;42.80;;;;;;491227;240;1243;-53
2020/12/22 11:49:03;;;;;;;;;;;18.40;42.90;;;;;;491273;240;1072;-53
2020/12/22 11:51:04;;;;;;;;;;;18.40;42.90;;;;;;491333;240;1089;-53
2020/12/22 11:53:06;;;;;;;;;;;18.40;42.90;;;;;;491244;240;1313;-53
2020/12/22 11:55:07;;;;;;;;;;;18.40;42.90;;;;;;491290;240;2188;-53
2020/12/22 11:57:08;;;;;;;;;;;18.30;41.60;;;;;;491141;240;1191;-53
2020/12/22 11:59:10;;;;;;;;;;;18.40;43.00;;;;;;491040;240;1079;-52